Time;durP1;ratioP1;P1;durP2;ratioP2;P2;SDS_P1;SDS_P2;PMS_P1;PMS_P2;Temp;Humidity;BMP_temperature;BMP_pressure;BME280_temperature;BME280_humidity;BME280_pressure;Samples;Min_cycle;Max_cycle;Signal;HPM_P1;HPM_P2
2023/06/08 00:00:39;;;;;;;6.50;4.10;;;;;;;-142.57;100.00;115900.28;5056663;28;20115;-78
2023/06/08 00:03:05;;;;;;;7.10;4.35;;;;;;;-142.57;100.00;115900.28;5055345;28;20044;-78
2023/06/08 00:05:31;;;;;;;7.38;4.60;;;;;;;-142.57;100.00;115900.28;5055140;28;20045;-81
2023/06/08 00:07:57;;;;;;;10.38;4.97;;;;;;;-142.57;100.00;115900.28;5053688;28;20029;-83
2023/06/08 00:10:23;;;;;;;7.95;5.03;;;;;;;-142.57;100.00;115900.28;5055078;28;20096;-80
2023/06/08 00:12:49;;;;;;;7.43;4.63;;;;;;;-142.57;100.00;115900.28;5055348;28;20088;-80
2023/06/08 00:15:17;;;;;;;7.13;4.40;;;;;;;-142.57;100.00;115900.28;5054940;28;20143;-82
2023/06/08 00:17:43;;;;;;;11.57;4.32;;;;;;;-142.57;100.00;115900.28;5054936;28;20048;-81
2023/06/08 00:20:09;;;;;;;7.90;4.00;;;;;;;-142.57;100.00;115900.28;5054964;28;20041;-80
2023/06/08 00:22:36;;;;;;;9.43;4.32;;;;;;;-142.57;100.00;115900.28;5054913;28;20380;-81
2023/06/08 00:25:04;;;;;;;9.63;4.03;;;;;;;-142.57;100.00;115900.28;5054772;28;20108;-80
2023/06/08 00:27:29;;;;;;;5.70;4.10;;;;;;;-142.57;100.00;115900.28;5056336;28;20402;-79
2023/06/08 00:29:55;;;;;;;9.60;3.95;;;;;;;-142.57;100.00;115900.28;5055448;28;20044;-81
2023/06/08 00:32:20;;;;;;;6.15;4.18;;;;;;;-142.57;100.00;115900.28;5055475;28;20037;-84
2023/06/08 00:34:46;;;;;;;5.57;3.97;;;;;;;-142.57;100.00;115900.28;5055208;28;20035;-82
2023/06/08 00:37:11;;;;;;;7.95;4.68;;;;;;;-142.57;100.00;115900.28;5054846;28;20033;-79
2023/06/08 00:39:37;;;;;;;11.73;4.28;;;;;;;-142.57;100.00;115900.28;5051467;28;20024;-79
2023/06/08 00:42:03;;;;;;;13.75;4.00;;;;;;;-142.57;100.00;115900.28;5043341;28;20121;-76
2023/06/08 00:44:28;;;;;;;4.88;3.85;;;;;;;-142.57;100.00;115900.28;5049996;28;20152;-80
2023/06/08 00:46:54;;;;;;;6.00;4.00;;;;;;;-142.57;100.00;115900.28;5052452;28;20124;-79
2023/06/08 00:49:20;;;;;;;9.52;4.28;;;;;;;-142.57;100.00;115900.28;5050200;28;20037;-81
2023/06/08 00:51:47;;;;;;;12.00;4.88;;;;;;;-142.57;100.00;115900.28;5053758;28;20413;-78
2023/06/08 00:54:15;;;;;;;9.38;4.50;;;;;;;-142.57;100.00;115900.28;5054010;28;20083;-77
2023/06/08 00:56:42;;;;;;;9.73;4.63;;;;;;;-142.57;100.00;115900.28;5054268;28;20029;-81
2023/06/08 00:59:10;;;;;;;8.50;4.10;;;;;;;-142.57;100.00;115900.28;5053076;28;20075;-81
2023/06/08 01:01:38;;;;;;;10.90;4.00;;;;;;;-142.57;100.00;115900.28;5053607;28;20037;-77
2023/06/08 01:04:07;;;;;;;10.27;4.35;;;;;;;-142.57;100.00;115900.28;5054164;28;20037;-77
2023/06/08 01:06:38;;;;;;;7.57;4.70;;;;;;;-142.57;100.00;115900.28;5069519;28;20037;-77
2023/06/08 01:09:19;;;;;;;5.93;4.38;;;;;;;-142.57;100.00;115900.28;5052646;28;20047;-78
2023/06/08 01:12:06;;;;;;;7.45;4.28;;;;;;;-142.57;100.00;115900.28;5052634;28;20086;-81
2023/06/08 01:14:41;;;;;;;5.80;3.85;;;;;;;-142.57;100.00;115900.28;5052630;28;20083;-77
2023/06/08 01:17:09;;;;;;;8.27;4.68;;;;;;;-142.57;100.00;115900.28;5054070;28;20029;-78
2023/06/08 01:19:53;;;;;;;14.95;4.78;;;;;;;-142.57;100.00;115900.28;5052612;28;20051;-81
2023/06/08 01:22:56;;;;;;;9.23;4.10;;;;;;;-142.57;100.00;115900.28;5053717;28;20472;-81
2023/06/08 01:25:30;;;;;;;9.18;4.93;;;;;;;-142.57;100.00;115900.28;5052704;28;20518;-80
2023/06/08 01:28:12;;;;;;;5.53;4.35;;;;;;;-142.57;100.00;115900.28;5052409;28;20028;-78
2023/06/08 01:30:48;;;;;;;8.30;4.20;;;;;;;-142.57;100.00;115900.28;5053182;28;20501;-78
2023/06/08 01:33:26;;;;;;;6.03;4.05;;;;;;;-142.57;100.00;115900.28;5053163;28;20063;-81
2023/06/08 01:35:58;;;;;;;9.57;4.30;;;;;;;-142.57;100.00;115900.28;5053545;28;20043;-79
2023/06/08 01:38:33;;;;;;;6.95;4.47;;;;;;;-142.57;100.00;115900.28;5053016;28;20548;-81
2023/06/08 01:41:05;;;;;;;10.57;5.07;;;;;;;-142.57;100.00;115900.28;5051880;28;20045;-79
2023/06/08 01:43:34;;;;;;;15.52;4.95;;;;;;;-142.57;100.00;115900.28;5053360;28;20036;-79
2023/06/08 01:46:05;;;;;;;8.88;4.93;;;;;;;-142.57;100.00;115900.28;5051983;28;20025;-81
2023/06/08 01:48:31;;;;;;;11.95;5.03;;;;;;;-142.57;100.00;115900.28;5052182;28;20418;-77
2023/06/08 01:51:01;;;;;;;9.10;5.18;;;;;;;-142.57;100.00;115900.28;5053354;28;20125;-81
2023/06/08 01:53:26;;;;;;;7.32;5.03;;;;;;;-142.57;100.00;115900.28;5053079;28;20120;-80
2023/06/08 01:55:52;;;;;;;8.52;5.00;;;;;;;-142.57;100.00;115900.28;5051707;28;20235;-82
2023/06/08 01:58:17;;;;;;;9.23;4.72;;;;;;;-142.57;100.00;115900.28;5051661;28;20044;-79
2023/06/08 02:00:43;;;;;;;8.43;4.43;;;;;;;-142.57;100.00;115900.28;5052042;28;20063;-78
2023/06/08 02:03:09;;;;;;;9.00;4.47;;;;;;;-142.57;100.00;115900.28;5052030;28;20036;-82
2023/06/08 02:05:34;;;;;;;8.23;5.22;;;;;;;-142.57;100.00;115900.28;5053279;28;20032;-78
2023/06/08 02:08:00;;;;;;;12.10;4.40;;;;;;;-142.57;100.00;115900.28;5053034;28;20132;-78
2023/06/08 02:10:26;;;;;;;8.80;4.80;;;;;;;-142.57;100.00;115900.28;5052117;28;20094;-82
2023/06/08 02:12:52;;;;;;;11.25;4.93;;;;;;;-142.57;100.00;115900.28;5052975;28;20108;-81
2023/06/08 02:15:17;;;;;;;6.38;4.57;;;;;;;-142.57;100.00;115900.28;5051760;28;20033;-81
2023/06/08 02:17:43;;;;;;;6.68;4.60;;;;;;;-142.57;100.00;115900.28;5058107;28;20032;-78
2023/06/08 02:20:09;;;;;;;6.35;4.47;;;;;;;-142.57;100.00;115900.28;5066727;28;20029;-77
2023/06/08 02:22:39;;;;;;;5.78;4.10;;;;;;;-142.57;100.00;115900.28;5065564;28;20041;-77
2023/06/08 02:25:07;;;;;;;11.23;4.68;;;;;;;-142.57;100.00;115900.28;5065640;28;20040;-78
2023/06/08 02:27:36;;;;;;;6.72;4.30;;;;;;;-142.57;100.00;115900.28;5067371;28;20035;-78
2023/06/08 02:30:04;;;;;;;8.13;4.65;;;;;;;-142.57;100.00;115900.28;5066172;28;20060;-79
2023/06/08 02:32:32;;;;;;;6.90;4.38;;;;;;;-142.57;100.00;115900.28;5062058;28;20032;-79
2023/06/08 02:35:05;;;;;;;10.18;4.82;;;;;;;-142.57;100.00;115900.28;5062423;28;20043;-79
2023/06/08 02:37:34;;;;;;;10.38;4.38;;;;;;;-142.57;100.00;115900.28;5062983;28;20037;-79
2023/06/08 02:40:03;;;;;;;5.20;4.22;;;;;;;-142.57;100.00;115900.28;5065093;28;20024;-78
2023/06/08 02:42:32;;;;;;;11.32;4.88;;;;;;;-142.57;100.00;115900.28;5066331;28;20028;-78
2023/06/08 02:44:59;;;;;;;6.50;4.55;;;;;;;-142.57;100.00;115900.28;5063151;28;20037;-79
2023/06/08 02:47:26;;;;;;;7.15;4.30;;;;;;;-142.57;100.00;115900.28;5064329;28;20067;-79
2023/06/08 02:49:52;;;;;;;7.90;4.15;;;;;;;-142.57;100.00;115900.28;5064388;28;20037;-79
2023/06/08 02:52:17;;;;;;;9.55;4.70;;;;;;;-142.57;100.00;115900.28;5067861;28;20056;-79
2023/06/08 02:54:43;;;;;;;6.32;3.90;;;;;;;-142.57;100.00;115900.28;5064995;28;20041;-79
2023/06/08 02:57:09;;;;;;;5.65;4.63;;;;;;;-142.57;100.00;115900.28;5057217;28;20173;-78
2023/06/08 02:59:42;;;;;;;12.88;4.68;;;;;;;-142.57;100.00;115900.28;5051702;28;20472;-81
2023/06/08 03:02:08;;;;;;;15.85;5.20;;;;;;;-142.57;100.00;115900.28;5051629;28;20041;-77
2023/06/08 03:04:35;;;;;;;6.93;4.30;;;;;;;-142.57;100.00;115900.28;5052473;28;20342;-82
2023/06/08 03:07:03;;;;;;;9.57;4.25;;;;;;;-142.57;100.00;115900.28;5051526;28;20025;-80
2023/06/08 03:09:32;;;;;;;7.22;4.53;;;;;;;-142.57;100.00;115900.28;5051358;28;20043;-80
2023/06/08 03:12:02;;;;;;;8.48;4.70;;;;;;;-142.57;100.00;115900.28;5051038;28;20082;-82
2023/06/08 03:14:29;;;;;;;6.03;4.53;;;;;;;-142.57;100.00;115900.28;5050971;28;20492;-80
2023/06/08 03:17:05;;;;;;;8.85;4.85;;;;;;;-142.57;100.00;115900.28;5050756;28;20025;-82
2023/06/08 03:19:39;;;;;;;15.00;5.70;;;;;;;-142.57;100.00;115900.28;5050955;28;20489;-81
2023/06/08 03:22:07;;;;;;;7.88;4.93;;;;;;;-142.57;100.00;115900.28;5050448;28;20430;-77
2023/06/08 03:24:42;;;;;;;7.97;5.22;;;;;;;-142.57;100.00;115900.28;5050510;28;20041;-78
2023/06/08 03:27:10;;;;;;;13.05;4.70;;;;;;;-142.57;100.00;115900.28;5050419;28;20033;-80
2023/06/08 03:29:36;;;;;;;12.30;5.28;;;;;;;-142.57;100.00;115900.28;5050644;28;20032;-80
2023/06/08 03:32:04;;;;;;;14.05;5.38;;;;;;;-142.57;100.00;115900.28;5055467;28;20041;-79
2023/06/08 03:34:31;;;;;;;9.23;4.88;;;;;;;-142.57;100.00;115900.28;5067437;28;20079;-79
2023/06/08 03:37:03;;;;;;;7.88;4.72;;;;;;;-142.57;100.00;115900.28;5050407;28;20132;-78
2023/06/08 03:39:29;;;;;;;6.47;4.80;;;;;;;-142.57;100.00;115900.28;5050524;28;20033;-81
2023/06/08 03:41:55;;;;;;;10.25;4.47;;;;;;;-142.57;100.00;115900.28;5051916;28;20815;-77
2023/06/08 03:44:23;;;;;;;7.32;4.88;;;;;;;-142.57;100.00;115900.28;5050752;28;20400;-79
2023/06/08 03:46:50;;;;;;;17.02;4.82;;;;;;;-142.57;100.00;115900.28;5050651;28;20086;-83
2023/06/08 03:49:16;;;;;;;6.85;4.70;;;;;;;-142.57;100.00;115900.28;5051939;28;20070;-79
2023/06/08 03:51:42;;;;;;;7.00;4.68;;;;;;;-142.57;100.00;115900.28;5050377;28;20171;-78
2023/06/08 03:54:08;;;;;;;9.15;4.50;;;;;;;-142.57;100.00;115900.28;5050542;28;20488;-79
2023/06/08 03:56:34;;;;;;;7.35;4.80;;;;;;;-142.57;100.00;115900.28;5050344;28;20037;-80
2023/06/08 03:59:01;;;;;;;7.85;4.55;;;;;;;-142.57;100.00;115900.28;5050483;28;20098;-81
2023/06/08 04:01:28;;;;;;;6.53;4.75;;;;;;;-142.57;100.00;115900.28;5050629;28;20098;-79
2023/06/08 04:03:54;;;;;;;8.75;4.50;;;;;;;-142.57;100.00;115900.28;5050281;28;20112;-79
2023/06/08 04:06:20;;;;;;;9.13;4.97;;;;;;;-142.57;100.00;115900.28;5051292;28;20107;-78
2023/06/08 04:08:45;;;;;;;10.27;5.53;;;;;;;-142.57;100.00;115900.28;5051513;28;20119;-78
2023/06/08 04:11:12;;;;;;;9.32;5.65;;;;;;;-142.57;100.00;115900.28;5050007;28;20029;-77
2023/06/08 04:13:39;;;;;;;8.82;5.78;;;;;;;-142.57;100.00;115900.28;5049940;28;20112;-79
2023/06/08 04:16:09;;;;;;;9.43;5.38;;;;;;;-142.57;100.00;115900.28;5049989;28;20033;-79
2023/06/08 04:18:41;;;;;;;13.07;5.72;;;;;;;-142.57;100.00;115900.28;5050162;28;20371;-78
2023/06/08 04:21:09;;;;;;;11.18;6.65;;;;;;;-142.57;100.00;115900.28;5050026;28;20029;-78
2023/06/08 04:23:36;;;;;;;13.68;6.05;;;;;;;-142.57;100.00;115900.28;5051017;28;20062;-81
2023/06/08 04:26:04;;;;;;;15.98;6.40;;;;;;;-142.57;100.00;115900.28;5051337;28;20075;-81
2023/06/08 04:28:30;;;;;;;10.45;5.70;;;;;;;-142.57;100.00;115900.28;5069960;28;20442;-79
2023/06/08 04:30:59;;;;;;;10.63;6.05;;;;;;;-142.57;100.00;115900.28;5053431;28;20144;-77
2023/06/08 04:33:27;;;;;;;7.88;6.18;;;;;;;-142.57;100.00;115900.28;5053753;28;20037;-78
2023/06/08 04:35:52;;;;;;;8.40;6.28;;;;;;;-142.57;100.00;115900.28;5053529;28;20373;-79
2023/06/08 04:38:18;;;;;;;12.05;6.70;;;;;;;-142.57;100.00;115900.28;5053172;28;20108;-78
2023/06/08 04:40:52;;;;;;;12.20;5.88;;;;;;;-142.57;100.00;115900.28;5054035;28;20086;-80
2023/06/08 04:43:18;;;;;;;14.32;6.85;;;;;;;-142.57;100.00;115900.28;5053371;28;20037;-79
2023/06/08 04:45:44;;;;;;;20.08;7.80;;;;;;;-142.57;100.00;115900.28;5054278;28;20037;-82
2023/06/08 04:48:13;;;;;;;15.40;8.10;;;;;;;-142.57;100.00;115900.28;5054021;28;20029;-80
2023/06/08 04:50:45;;;;;;;12.55;7.95;;;;;;;-142.57;100.00;115900.28;5052858;28;20039;-79
2023/06/08 04:53:14;;;;;;;17.23;9.90;;;;;;;-142.57;100.00;115900.28;5053101;28;20374;-80
2023/06/08 04:55:44;;;;;;;26.50;12.07;;;;;;;-142.57;100.00;115900.28;5052665;28;20045;-79
2023/06/08 04:58:11;;;;;;;19.70;13.95;;;;;;;-142.57;100.00;115900.28;5069207;28;20040;-81
2023/06/08 05:00:39;;;;;;;24.10;15.45;;;;;;;-142.57;100.00;115900.28;5052948;28;20044;-86
2023/06/08 05:03:08;;;;;;;25.83;14.55;;;;;;;-142.57;100.00;115900.28;5054632;28;20103;-83
2023/06/08 05:05:34;;;;;;;24.27;16.27;;;;;;;-142.57;100.00;115900.28;5047431;28;20470;-80
2023/06/08 05:08:00;;;;;;;27.02;18.15;;;;;;;-142.57;100.00;115900.28;5054495;28;20071;-84
2023/06/08 05:10:25;;;;;;;25.42;16.75;;;;;;;-142.57;100.00;115900.28;5053261;28;20165;-81
2023/06/08 05:12:52;;;;;;;27.10;17.52;;;;;;;-142.57;100.00;115900.28;5054401;28;20060;-84
2023/06/08 05:15:18;;;;;;;24.25;15.82;;;;;;;-142.57;100.00;115900.28;5054501;28;20025;-85
2023/06/08 05:17:44;;;;;;;23.25;15.30;;;;;;;-142.57;100.00;115900.28;5054556;28;20485;-83
2023/06/08 05:20:10;;;;;;;23.15;14.50;;;;;;;-142.57;100.00;115900.28;5054515;28;20029;-83
2023/06/08 05:22:35;;;;;;;21.58;14.15;;;;;;;-142.57;100.00;115900.28;5054548;28;20117;-85
2023/06/08 05:25:01;;;;;;;21.75;13.82;;;;;;;-142.57;100.00;115900.28;5059629;28;20417;-83
2023/06/08 05:27:26;;;;;;;21.70;12.45;;;;;;;-142.57;100.00;115900.28;5057594;28;20518;-82
2023/06/08 05:29:51;;;;;;;17.88;11.55;;;;;;;-142.57;100.00;115900.28;5055644;28;20033;-83
2023/06/08 05:32:17;;;;;;;16.75;9.75;;;;;;;-142.57;100.00;115900.28;5054719;28;20087;-87
2023/06/08 05:34:42;;;;;;;14.52;9.35;;;;;;;-142.57;100.00;115900.28;5054022;28;20531;-86
2023/06/08 05:37:08;;;;;;;13.05;9.27;;;;;;;-142.57;100.00;115900.28;5057716;28;20043;-85
2023/06/08 05:39:33;;;;;;;13.27;8.50;;;;;;;-142.57;100.00;115900.28;5056047;28;20082;-84
2023/06/08 05:41:59;;;;;;;13.02;7.50;;;;;;;-142.57;100.00;115900.28;5055213;28;20408;-84
2023/06/08 05:44:24;;;;;;;9.93;7.85;;;;;;;-142.57;100.00;115900.28;5054809;28;20033;-83
2023/06/08 05:46:50;;;;;;;12.80;7.03;;;;;;;-142.57;100.00;115900.28;5054625;28;20032;-81
2023/06/08 05:49:15;;;;;;;11.93;6.90;;;;;;;-142.57;100.00;115900.28;5056274;28;20033;-83
2023/06/08 05:51:41;;;;;;;11.40;7.32;;;;;;;-142.57;100.00;115900.28;5053981;28;20482;-82
2023/06/08 05:54:06;;;;;;;17.25;6.93;;;;;;;-142.57;100.00;115900.28;5054187;28;20101;-79
2023/06/08 05:56:32;;;;;;;12.25;6.15;;;;;;;-142.57;100.00;115900.28;5054242;28;20152;-83
2023/06/08 05:58:58;;;;;;;15.00;5.97;;;;;;;-142.57;100.00;115900.28;5054098;28;20056;-81
2023/06/08 06:01:24;;;;;;;10.45;6.53;;;;;;;-142.57;100.00;115900.28;5068882;28;20083;-82
2023/06/08 06:03:50;;;;;;;7.65;6.28;;;;;;;-142.57;100.00;115900.28;5054062;28;20033;-83
2023/06/08 06:06:16;;;;;;;10.65;7.00;;;;;;;-142.57;100.00;115900.28;5054160;28;20036;-80
2023/06/08 06:08:41;;;;;;;18.10;6.47;;;;;;;-142.57;100.00;115900.28;5070012;28;20036;-85
2023/06/08 06:11:07;;;;;;;13.43;6.25;;;;;;;-142.57;100.00;115900.28;5056856;28;20561;-87
2023/06/08 06:13:32;;;;;;;18.45;6.95;;;;;;;-142.57;99.68;115900.28;5055369;28;20029;-79
2023/06/08 06:15:58;;;;;;;9.80;6.50;;;;;;;-142.57;98.05;115900.28;5058842;28;20056;-83
2023/06/08 06:18:24;;;;;;;13.57;8.25;;;;;;;-142.57;92.95;115900.28;5057301;28;20036;-82
2023/06/08 06:20:50;;;;;;;13.85;8.98;;;;;;;-142.57;93.73;115900.28;5057418;28;20041;-88
2023/06/08 06:23:16;;;;;;;12.68;8.95;;;;;;;-142.57;87.91;115900.28;5054931;28;20051;-85
2023/06/08 06:25:42;;;;;;;14.65;8.93;;;;;;;-142.57;82.61;115900.28;5053994;28;20086;-85
2023/06/08 06:28:08;;;;;;;15.90;9.70;;;;;;;-142.57;82.88;115900.28;5053999;28;20094;-84
2023/06/08 06:30:33;;;;;;;14.50;9.88;;;;;;;-142.57;80.26;115900.28;5053579;28;20524;-83
2023/06/08 06:32:59;;;;;;;15.77;9.75;;;;;;;-142.57;79.51;115900.28;5053766;28;20021;-83
2023/06/08 06:35:24;;;;;;;19.23;8.38;;;;;;;-142.57;79.29;115900.28;5052618;28;20040;-83
2023/06/08 06:37:53;;;;;;;17.17;10.80;;;;;;;-142.57;72.66;115900.28;5054150;28;20024;-88
2023/06/08 06:40:20;;;;;;;18.25;10.07;;;;;;;-142.57;74.64;115900.28;5054268;28;20149;-81
2023/06/08 06:42:46;;;;;;;22.10;11.07;;;;;;;-142.57;76.48;115900.28;5052956;28;20429;-79
2023/06/08 06:45:30;;;;;;;13.75;8.95;;;;;;;-142.57;75.53;115900.28;5044001;28;20037;-83
2023/06/08 06:47:56;;;;;;;12.70;9.27;;;;;;;-142.57;79.08;115900.28;5057284;28;20033;-83
2023/06/08 06:50:21;;;;;;;13.65;9.25;;;;;;;-142.57;79.61;115900.28;5054817;28;20036;-85
2023/06/08 06:52:47;;;;;;;10.90;8.35;;;;;;;-142.57;79.92;115900.28;5053948;28;20096;-80
2023/06/08 06:55:12;;;;;;;14.23;9.18;;;;;;;-142.57;79.24;115900.28;5053539;28;20126;-78
2023/06/08 06:57:40;;;;;;;19.50;10.05;;;;;;;-142.57;81.02;115900.28;5053649;28;20500;-85
2023/06/08 07:00:10;;;;;;;23.02;11.50;;;;;;;-142.57;84.43;115900.28;5053237;28;20482;-79
2023/06/08 07:02:40;;;;;;;16.50;11.65;;;;;;;-142.57;85.71;115900.28;5053176;28;20041;-81
2023/06/08 07:05:07;;;;;;;15.93;11.05;;;;;;;-142.57;88.23;115900.28;5053601;28;20037;-79
2023/06/08 07:07:36;;;;;;;17.48;11.10;;;;;;;-142.57;87.88;115900.28;5055883;28;20080;-86
2023/06/08 07:10:03;;;;;;;14.73;10.43;;;;;;;-142.57;88.16;115900.28;5055774;28;20056;-84
2023/06/08 07:12:30;;;;;;;19.02;11.73;;;;;;;-142.57;85.92;115900.28;5053733;28;20048;-82
2023/06/08 07:14:56;;;;;;;22.00;10.73;;;;;;;-142.57;82.30;115900.28;5053651;28;20125;-81
2023/06/08 07:17:21;;;;;;;15.32;11.40;;;;;;;-142.57;77.62;115900.28;5054437;28;20056;-82
2023/06/08 07:19:47;;;;;;;15.10;10.68;;;;;;;-142.57;76.65;115900.28;5055876;28;20105;-82
2023/06/08 07:22:13;;;;;;;22.75;9.63;;;;;;;-142.57;72.05;115900.28;5057372;28;20035;-81
2023/06/08 07:24:38;;;;;;;16.38;9.55;;;;;;;-142.57;72.91;115900.28;5055092;28;20497;-77
2023/06/08 07:27:06;;;;;;;14.48;9.70;;;;;;;-142.57;67.45;115900.28;5054717;28;20116;-81
2023/06/08 07:29:31;;;;;;;17.42;10.48;;;;;;;-142.57;69.76;115900.28;5054408;28;20033;-81
2023/06/08 07:31:57;;;;;;;15.30;10.00;;;;;;;-142.57;68.29;115900.28;5053082;28;20064;-79
2023/06/08 07:34:23;;;;;;;15.07;9.63;;;;;;;-142.57;68.39;115900.28;5056462;28;20446;-81
2023/06/08 07:36:48;;;;;;;12.27;9.20;;;;;;;-142.57;61.32;115900.28;5057699;28;20117;-80
2023/06/08 07:39:14;;;;;;;17.33;8.80;;;;;;;-142.57;63.61;115900.28;5055883;28;20041;-82
2023/06/08 07:41:39;;;;;;;17.20;8.05;;;;;;;-142.57;61.88;115900.28;5055637;28;20033;-87
2023/06/08 07:44:05;;;;;;;11.02;8.02;;;;;;;-142.57;60.86;115900.28;5054788;28;20099;-84
2023/06/08 07:46:31;;;;;;;18.45;9.02;;;;;;;-142.57;60.77;115900.28;5057903;28;20103;-81
2023/06/08 07:48:56;;;;;;;13.85;8.65;;;;;;;-142.57;63.56;115900.28;5058667;28;20405;-83
2023/06/08 07:51:22;;;;;;;15.85;8.02;;;;;;;-142.57;61.64;115900.28;5058124;28;20033;-85
2023/06/08 07:53:48;;;;;;;11.48;8.07;;;;;;;-142.57;61.60;115900.28;5056150;28;20028;-87
2023/06/08 07:56:13;;;;;;;15.05;9.15;;;;;;;-142.57;55.89;115900.28;5058866;28;20053;-87
2023/06/08 07:58:39;;;;;;;18.98;8.75;;;;;;;-142.57;54.61;115900.28;5057539;28;20025;-82
2023/06/08 08:01:05;;;;;;;15.45;9.80;;;;;;;-142.57;59.75;115900.28;5058667;28;20066;-81
2023/06/08 08:03:37;;;;;;;13.63;9.23;;;;;;;-142.57;59.91;115900.28;5058852;28;20037;-79
2023/06/08 08:06:03;;;;;;;14.68;9.27;;;;;;;-142.57;60.05;115900.28;5059234;28;20059;-83
2023/06/08 08:08:29;;;;;;;17.65;10.25;;;;;;;-142.57;56.64;115900.28;5050796;28;20041;-80
2023/06/08 08:10:55;;;;;;;11.70;8.73;;;;;;;-142.57;52.47;115900.28;5042457;28;20030;-82
2023/06/08 08:13:20;;;;;;;19.65;10.05;;;;;;;-142.57;51.25;115900.28;5040806;28;20105;-85
2023/06/08 08:15:46;;;;;;;12.68;8.88;;;;;;;-142.57;49.41;115900.28;5039171;28;20041;-81
2023/06/08 08:18:13;;;;;;;12.05;9.85;;;;;;;-142.57;47.47;115900.28;5039147;28;20044;-85
2023/06/08 08:20:39;;;;;;;16.92;10.07;;;;;;;-142.57;47.58;115900.28;5057433;28;20040;-87
2023/06/08 08:23:05;;;;;;;14.40;11.07;;;;;;;-142.57;48.46;115900.28;5044899;28;20045;-85
2023/06/08 08:25:32;;;;;;;16.60;8.98;;;;;;;-142.57;46.98;115900.28;5044173;28;20091;-86
2023/06/08 08:27:58;;;;;;;17.63;10.35;;;;;;;-142.57;44.32;115900.28;5040106;28;20390;-84
2023/06/08 08:30:26;;;;;;;12.18;8.52;;;;;;;-142.57;43.39;115900.28;5041173;28;20037;-81
2023/06/08 08:32:52;;;;;;;14.55;7.10;;;;;;;-142.57;44.84;115900.28;5040567;28;20033;-83
2023/06/08 08:35:19;;;;;;;16.95;9.60;;;;;;;-142.57;46.75;115900.28;5041141;28;20048;-90
2023/06/08 08:37:45;;;;;;;13.95;10.95;;;;;;;-142.57;46.19;115900.28;5037830;28;20052;-82
2023/06/08 08:40:13;;;;;;;15.32;11.63;;;;;;;-142.57;49.54;115900.28;5055560;28;20475;-80
2023/06/08 08:42:46;;;;;;;18.77;12.98;;;;;;;-142.57;47.86;115900.28;5062467;28;20041;-86
2023/06/08 08:45:16;;;;;;;13.75;10.45;;;;;;;-142.57;46.78;115900.28;5062658;28;20040;-81
2023/06/08 08:47:44;;;;;;;14.88;10.07;;;;;;;-142.57;48.13;115900.28;5057756;28;20033;-84
2023/06/08 08:50:16;;;;;;;22.15;9.95;;;;;;;-142.57;49.59;115900.28;5040358;28;20033;-83
2023/06/08 08:52:53;;;;;;;22.10;12.23;;;;;;;-142.57;48.59;115900.28;5056808;28;20451;-84
2023/06/08 08:55:27;;;;;;;26.17;12.80;;;;;;;-142.57;46.79;115900.28;5038875;28;20110;-82
2023/06/08 08:57:58;;;;;;;19.17;10.63;;;;;;;-142.57;45.59;115900.28;5055273;28;20082;-83
2023/06/08 09:00:26;;;;;;;20.58;13.45;;;;;;;-142.57;46.00;115900.28;5056308;28;20033;-85
2023/06/08 09:02:52;;;;;;;16.60;12.88;;;;;;;-142.57;45.95;115900.28;5054134;28;20053;-84
2023/06/08 09:05:19;;;;;;;14.27;11.57;;;;;;;-142.57;44.82;115900.28;5055102;28;20043;-83
2023/06/08 09:07:45;;;;;;;17.48;12.50;;;;;;;-142.57;45.68;115900.28;5054697;28;20041;-85
2023/06/08 09:10:18;;;;;;;20.05;11.18;;;;;;;-142.57;44.58;115900.28;5055445;28;20045;-82
2023/06/08 09:12:55;;;;;;;21.27;12.82;;;;;;;-142.57;46.12;115900.28;5053948;28;20505;-85
2023/06/08 09:15:28;;;;;;;15.80;11.50;;;;;;;-142.57;44.85;115900.28;5055036;28;20060;-87
2023/06/08 09:17:55;;;;;;;16.00;11.07;;;;;;;-142.57;44.86;115900.28;5055051;28;20041;-81
2023/06/08 09:20:42;;;;;;;16.30;11.80;;;;;;;-142.57;42.15;115900.28;5055302;28;20381;-86
2023/06/08 09:23:26;;;;;;;18.00;12.73;;;;;;;-142.57;42.64;115900.28;5054941;28;20037;-88
2023/06/08 09:25:54;;;;;;;15.18;10.63;;;;;;;-142.57;41.95;115900.28;5054789;28;20091;-82
2023/06/08 09:28:28;;;;;;;18.55;12.75;;;;;;;-142.57;40.88;115900.28;5054458;28;20041;-82
2023/06/08 09:31:00;;;;;;;17.52;12.93;;;;;;;-142.57;42.47;115900.28;5054707;28;20032;-83
2023/06/08 09:33:29;;;;;;;18.45;13.07;;;;;;;-142.57;45.42;115900.28;5054775;28;20486;-81
2023/06/08 09:35:58;;;;;;;19.73;13.63;;;;;;;-142.57;45.05;115900.28;5045571;28;20036;-83
2023/06/08 09:38:28;;;;;;;20.00;14.65;;;;;;;-142.57;46.81;115900.28;5049606;28;20512;-83
2023/06/08 09:41:16;;;;;;;19.23;14.30;;;;;;;-142.57;47.00;115900.28;5047751;28;20033;-84
2023/06/08 09:43:43;;;;;;;18.98;13.93;;;;;;;-142.57;46.07;115900.28;5061506;28;20045;-83
2023/06/08 09:46:17;;;;;;;17.08;12.25;;;;;;;-142.57;46.27;115900.28;5048192;28;20029;-81
2023/06/08 09:48:53;;;;;;;16.83;11.23;;;;;;;-142.57;46.03;115900.28;5031831;28;20029;-83
2023/06/08 09:51:24;;;;;;;19.65;12.18;;;;;;;-142.57;45.35;115900.28;5044710;28;20029;-86
2023/06/08 09:53:55;;;;;;;19.05;13.60;;;;;;;-142.57;44.91;115900.28;5043870;28;20128;-84
2023/06/08 09:56:22;;;;;;;21.97;14.20;;;;;;;-142.57;43.96;115900.28;5046837;28;20029;-80
2023/06/08 09:58:51;;;;;;;18.30;12.18;;;;;;;-142.57;46.22;115900.28;5053766;28;20086;-82
2023/06/08 10:01:21;;;;;;;18.83;13.70;;;;;;;-142.57;44.99;115900.28;5053488;28;20036;-81
2023/06/08 10:03:50;;;;;;;32.05;12.48;;;;;;;-142.57;46.66;115900.28;5049989;28;20470;-82
2023/06/08 10:06:18;;;;;;;17.20;11.77;;;;;;;-142.57;46.53;115900.28;5052879;28;20080;-83
2023/06/08 10:08:46;;;;;;;19.90;12.60;;;;;;;-142.57;44.46;115900.28;5049495;28;20060;-84
2023/06/08 10:11:13;;;;;;;17.17;11.70;;;;;;;-142.57;45.20;115900.28;5047169;28;20108;-83
2023/06/08 10:13:40;;;;;;;13.70;11.98;;;;;;;-142.57;44.42;115900.28;5047641;28;20043;-83
2023/06/08 10:16:05;;;;;;;17.08;12.45;;;;;;;-142.57;45.37;115900.28;5045252;28;20382;-84
2023/06/08 10:18:33;;;;;;;23.50;10.70;;;;;;;-142.57;44.92;115900.28;5052493;28;20029;-82
2023/06/08 10:21:03;;;;;;;15.88;10.13;;;;;;;-142.57;43.01;115900.28;5050578;28;20036;-85
2023/06/08 10:23:29;;;;;;;15.68;12.40;;;;;;;-142.57;43.43;115900.28;5048024;28;20131;-85
2023/06/08 10:25:55;;;;;;;26.25;11.63;;;;;;;-142.57;45.04;115900.28;5045653;28;20029;-84
2023/06/08 10:28:21;;;;;;;20.52;10.48;;;;;;;-142.57;45.16;115900.28;5045782;28;20040;-82
2023/06/08 10:30:46;;;;;;;21.33;12.30;;;;;;;-142.57;45.71;115900.28;5046698;28;20455;-84
2023/06/08 10:33:25;;;;;;;19.98;13.52;;;;;;;-142.57;45.53;115900.28;5045453;28;20500;-82
2023/06/08 10:36:07;;;;;;;18.67;12.77;;;;;;;-142.57;45.04;115900.28;5048225;28;20033;-81
2023/06/08 10:38:55;;;;;;;16.30;11.98;;;;;;;-142.57;44.35;115900.28;5046068;28;20166;-84
2023/06/08 10:41:41;;;;;;;15.63;9.23;;;;;;;-142.57;43.17;115900.28;5044092;28;20064;-85
2023/06/08 10:44:22;;;;;;;17.27;8.80;;;;;;;-142.57;42.28;115900.28;5049139;28;20033;-81
2023/06/08 10:46:54;;;;;;;13.38;8.93;;;;;;;-142.57;42.05;115900.28;5048940;28;20086;-86
2023/06/08 10:49:20;;;;;;;19.88;8.65;;;;;;;-142.57;42.98;115900.28;5046615;28;20085;-86
2023/06/08 10:51:46;;;;;;;17.45;10.02;;;;;;;-142.57;43.07;115900.28;5049363;28;20089;-85
2023/06/08 10:54:25;;;;;;;17.48;11.07;;;;;;;-142.57;41.85;115900.28;5055656;28;20045;-85
2023/06/08 10:56:54;;;;;;;16.88;9.73;;;;;;;-142.57;42.16;115900.28;5053558;28;20029;-83
2023/06/08 10:59:37;;;;;;;18.00;10.18;;;;;;;-142.57;40.70;115900.28;5051326;28;20033;-83
2023/06/08 11:02:04;;;;;;;12.05;7.82;;;;;;;-142.57;40.05;115900.28;5048159;28;20037;-86